createdAt,value
2024-01-28T00:00:12.722Z,36.50
2024-01-28T00:03:22.081Z,36.40
2024-01-28T00:06:30.622Z,36.40
2024-01-28T00:09:38.599Z,36.40
2024-01-28T00:12:48.272Z,36.40
2024-01-28T00:15:56.884Z,36.30
2024-01-28T00:19:07.039Z,36.30
2024-01-28T00:22:15.408Z,36.30
2024-01-28T00:25:23.187Z,36.40
2024-01-28T00:28:32.845Z,36.30
2024-01-28T00:31:40.700Z,36.30
2024-01-28T00:34:51.304Z,36.30
2024-01-28T00:38:00.247Z,36.30
2024-01-28T00:41:08.406Z,36.30
2024-01-28T00:44:20.144Z,36.20
2024-01-28T00:47:28.318Z,36.30
2024-01-28T00:50:36.414Z,36.20
2024-01-28T00:53:44.555Z,36.20
2024-01-28T00:56:53.806Z,36.20
2024-01-28T01:00:04.761Z,36.20
2024-01-28T01:03:12.902Z,36.20
2024-01-28T01:06:20.939Z,36.20
2024-01-28T01:09:28.859Z,36.20
2024-01-28T01:12:36.718Z,36.20
2024-01-28T01:15:46.391Z,36.30
2024-01-28T01:18:54.368Z,36.20
2024-01-28T01:22:03.790Z,36.20
2024-01-28T01:25:13.590Z,36.30
2024-01-28T01:28:21.573Z,36.30
2024-01-28T01:31:30.759Z,36.30
2024-01-28T01:34:38.845Z,36.20
2024-01-28T01:37:47.039Z,36.20
2024-01-28T01:40:54.958Z,36.30
2024-01-28T01:44:04.325Z,36.30
2024-01-28T01:47:13.944Z,36.30
2024-01-28T01:50:22.237Z,36.30
2024-01-28T01:53:30.623Z,36.30
2024-01-28T01:56:38.597Z,36.30
2024-01-28T01:59:46.446Z,36.30
2024-01-28T02:02:55.850Z,36.30
2024-01-28T02:06:04.107Z,36.20
2024-01-28T02:09:12.301Z,36.30
2024-01-28T02:12:20.658Z,36.30
2024-01-28T02:15:28.716Z,36.30
2024-01-28T02:18:38.334Z,36.30
2024-01-28T02:21:46.686Z,36.30
2024-01-28T02:24:55.892Z,36.30
2024-01-28T02:28:03.995Z,36.30
2024-01-28T02:31:12.141Z,36.30
2024-01-28T02:34:20.487Z,36.30
2024-01-28T02:37:28.789Z,36.30
2024-01-28T02:40:38.253Z,36.30
2024-01-28T02:43:46.530Z,36.30
2024-01-28T02:46:56.854Z,36.20
2024-01-28T02:50:05.513Z,36.20
2024-01-28T02:53:13.790Z,36.20
2024-01-28T02:56:23.141Z,36.20
2024-01-28T02:59:31.261Z,36.20
2024-01-28T03:02:40.737Z,36.30
2024-01-28T03:05:48.792Z,36.20
2024-01-28T03:08:56.966Z,36.20
2024-01-28T03:12:07.652Z,36.20
2024-01-28T03:15:15.734Z,36.20
2024-01-28T03:18:23.845Z,36.20
2024-01-28T03:21:32.377Z,36.20
2024-01-28T03:24:41.394Z,36.20
2024-01-28T03:27:50.689Z,36.20
2024-01-28T03:30:58.603Z,36.20
2024-01-28T03:34:06.942Z,36.20
2024-01-28T03:37:15.216Z,36.20
2024-01-28T03:40:23.340Z,36.20
2024-01-28T03:43:32.632Z,36.20
2024-01-28T03:46:40.826Z,36.20
2024-01-28T03:49:49.026Z,36.20
2024-01-28T03:52:56.794Z,36.20
2024-01-28T03:56:05.818Z,36.20
2024-01-28T03:59:15.624Z,36.10
2024-01-28T04:02:23.951Z,36.20
2024-01-28T04:05:33.840Z,36.10
2024-01-28T04:08:41.778Z,36.10
2024-01-28T04:11:49.948Z,36.10
2024-01-28T04:14:59.247Z,36.00
2024-01-28T04:18:07.487Z,36.00
2024-01-28T04:21:15.660Z,36.00
2024-01-28T04:24:23.378Z,36.00
2024-01-28T04:27:31.397Z,36.00
2024-01-28T04:30:40.815Z,36.00
2024-01-28T04:33:48.905Z,36.00
2024-01-28T04:36:57.007Z,36.00
2024-01-28T04:40:05.662Z,35.90
2024-01-28T04:43:13.605Z,35.90
2024-01-28T04:46:23.169Z,36.00
2024-01-28T04:49:31.397Z,35.90
2024-01-28T04:52:39.389Z,36.00
2024-01-28T04:55:47.577Z,36.00
2024-01-28T04:58:55.657Z,35.90
2024-01-28T05:02:06.997Z,36.00
2024-01-28T05:05:14.847Z,35.90
2024-01-28T05:08:22.670Z,35.90
2024-01-28T05:11:30.945Z,35.90
2024-01-28T05:14:38.788Z,35.90
2024-01-28T05:17:48.322Z,35.90
2024-01-28T05:20:56.130Z,35.90
2024-01-28T05:24:04.434Z,35.90
2024-01-28T05:27:12.193Z,35.90
2024-01-28T05:30:20.644Z,35.90
2024-01-28T05:33:30.120Z,35.90
2024-01-28T05:36:38.397Z,35.90
2024-01-28T05:39:46.717Z,35.90
2024-01-28T05:42:54.748Z,35.90
2024-01-28T05:46:02.971Z,35.90
2024-01-28T05:49:13.482Z,35.90
2024-01-28T05:52:21.486Z,35.90
2024-01-28T05:55:29.640Z,35.90
2024-01-28T05:58:37.656Z,35.90
2024-01-28T06:01:45.839Z,35.90
2024-01-28T06:04:55.098Z,35.90
2024-01-28T06:08:02.942Z,35.80
2024-01-28T06:11:11.091Z,35.80
2024-01-28T06:14:19.234Z,35.90
2024-01-28T06:17:27.479Z,35.90
2024-01-28T06:20:37.693Z,35.90
2024-01-28T06:23:46.454Z,35.90
2024-01-28T06:26:55.895Z,35.90
2024-01-28T06:30:04.350Z,35.90
2024-01-28T06:33:12.822Z,35.80
2024-01-28T06:36:22.766Z,35.80
2024-01-28T06:39:30.712Z,35.80
2024-01-28T06:42:38.983Z,35.80
2024-01-28T06:45:47.091Z,36.50
2024-01-28T06:48:55.025Z,35.80
2024-01-28T06:52:04.569Z,35.80
2024-01-28T06:55:12.829Z,35.80
2024-01-28T06:58:20.687Z,35.80
2024-01-28T07:01:28.759Z,35.80
2024-01-28T07:04:37.034Z,35.80
2024-01-28T07:07:46.266Z,35.80
2024-01-28T07:10:54.398Z,36.40
2024-01-28T07:14:02.471Z,35.80
2024-01-28T07:17:10.687Z,35.80
2024-01-28T07:20:19.066Z,35.80
2024-01-28T07:23:28.327Z,36.40
2024-01-28T07:26:36.409Z,35.80
2024-01-28T07:29:45.673Z,35.70
2024-01-28T07:32:53.906Z,35.80
2024-01-28T07:36:01.816Z,35.80
2024-01-28T07:39:12.101Z,35.80
2024-01-28T07:42:22.091Z,35.70
2024-01-28T07:45:30.434Z,35.70
2024-01-28T07:48:38.785Z,35.60
2024-01-28T07:51:46.893Z,35.70
2024-01-28T07:54:56.401Z,35.70
2024-01-28T07:58:04.550Z,35.70
2024-01-28T08:01:12.793Z,35.60
2024-01-28T08:04:20.666Z,35.70
2024-01-28T08:07:28.574Z,35.60
2024-01-28T08:10:38.168Z,35.60
2024-01-28T08:13:46.285Z,35.60
2024-01-28T08:16:54.504Z,35.60
2024-01-28T08:20:04.860Z,35.60
2024-01-28T08:23:12.993Z,35.60
2024-01-28T08:26:22.262Z,35.60
2024-01-28T08:29:30.374Z,35.70
2024-01-28T08:32:38.580Z,35.60
2024-01-28T08:35:46.536Z,35.60
2024-01-28T08:38:54.727Z,35.60
2024-01-28T08:42:04.143Z,35.70
2024-01-28T08:45:12.591Z,35.70
2024-01-28T08:48:20.568Z,35.70
2024-01-28T08:51:28.436Z,35.70
2024-01-28T08:54:37.940Z,35.70
2024-01-28T08:57:47.560Z,35.70
2024-01-28T09:00:55.913Z,35.70
2024-01-28T09:04:03.865Z,35.70
2024-01-28T09:07:11.910Z,35.60
2024-01-28T09:10:20.806Z,35.70
2024-01-28T09:13:30.471Z,35.60
2024-01-28T09:16:38.937Z,35.60
2024-01-28T09:19:47.326Z,35.60
2024-01-28T09:22:55.718Z,36.30
2024-01-28T09:26:03.746Z,35.60
2024-01-28T09:29:13.422Z,35.60
2024-01-28T09:32:21.535Z,35.70
2024-01-28T09:35:29.767Z,35.70
2024-01-28T09:38:39.856Z,35.70
2024-01-28T09:41:51.902Z,35.70
2024-01-28T09:45:01.860Z,35.70
2024-01-28T09:48:10.242Z,35.70
2024-01-28T09:51:18.221Z,35.70
2024-01-28T09:54:26.601Z,35.70
2024-01-28T09:57:34.503Z,35.70
2024-01-28T10:00:44.093Z,35.70
2024-01-28T10:03:52.491Z,35.70
2024-01-28T10:07:01.207Z,35.80
2024-01-28T10:10:09.953Z,35.80
2024-01-28T10:13:18.032Z,35.80
2024-01-28T10:16:27.168Z,35.80
2024-01-28T10:19:37.919Z,35.80
2024-01-28T10:22:46.988Z,35.80
2024-01-28T10:25:57.812Z,35.80
2024-01-28T10:29:07.964Z,35.80
2024-01-28T10:32:17.280Z,35.80
2024-01-28T10:35:26.447Z,35.80
2024-01-28T10:38:34.539Z,35.80
2024-01-28T10:41:42.557Z,35.90
2024-01-28T10:44:50.589Z,35.80
2024-01-28T10:48:08.347Z,35.80
2024-01-28T10:51:16.867Z,35.90
2024-01-28T10:54:24.855Z,35.90
2024-01-28T10:57:33.099Z,35.80
2024-01-28T11:00:41.262Z,35.90
2024-01-28T11:03:50.726Z,35.80
2024-01-28T11:06:58.939Z,35.80
2024-01-28T11:10:10.038Z,35.90
2024-01-28T11:13:18.125Z,35.90
2024-01-28T11:16:30.162Z,35.90
2024-01-28T11:19:39.677Z,35.90
2024-01-28T11:22:49.372Z,35.90
2024-01-28T11:25:57.461Z,35.90
2024-01-28T11:29:07.629Z,35.90
2024-01-28T11:32:15.845Z,35.90
2024-01-28T11:35:26.722Z,36.00
2024-01-28T11:38:34.604Z,35.90
2024-01-28T11:41:44.213Z,36.50
2024-01-28T11:44:52.309Z,35.90
2024-01-28T11:48:00.477Z,35.90
2024-01-28T11:51:10.770Z,35.90
2024-01-28T11:54:18.621Z,35.90
2024-01-28T11:57:26.704Z,35.90
2024-01-28T12:00:34.615Z,35.90
2024-01-28T12:03:42.736Z,35.90
2024-01-28T12:06:52.346Z,36.00
2024-01-28T12:10:01.576Z,35.90
2024-01-28T12:13:13.417Z,36.00
2024-01-28T12:16:21.970Z,35.90
2024-01-28T12:19:29.961Z,36.00
2024-01-28T12:22:39.969Z,35.90
2024-01-28T12:25:47.821Z,35.90
2024-01-28T12:28:56.123Z,35.90
2024-01-28T12:32:04.331Z,35.90
2024-01-28T12:35:13.565Z,35.90
2024-01-28T12:38:22.887Z,35.90
2024-01-28T12:41:30.598Z,35.90
2024-01-28T12:44:38.698Z,35.90
2024-01-28T12:47:46.904Z,35.90
2024-01-28T12:50:54.836Z,35.90
2024-01-28T12:54:04.251Z,35.90
2024-01-28T12:57:12.352Z,35.90
2024-01-28T13:00:22.979Z,35.90
2024-01-28T13:03:31.257Z,35.80
2024-01-28T13:06:39.297Z,35.80
2024-01-28T13:09:49.376Z,35.90
2024-01-28T13:12:57.422Z,35.80
2024-01-28T13:16:06.013Z,35.80
2024-01-28T13:19:14.249Z,35.70
2024-01-28T13:22:22.397Z,35.80
2024-01-28T13:25:31.549Z,35.80
2024-01-28T13:28:39.611Z,35.70
2024-01-28T13:31:47.914Z,35.70
2024-01-28T13:34:56.320Z,35.70
2024-01-28T13:38:05.015Z,35.80
2024-01-28T13:41:14.608Z,35.70
2024-01-28T13:44:22.745Z,35.70
2024-01-28T13:47:30.899Z,35.70
2024-01-28T13:50:40.086Z,35.70
2024-01-28T13:53:48.133Z,35.70
2024-01-28T13:56:57.426Z,35.70
2024-01-28T14:00:07.782Z,35.70
2024-01-28T14:03:16.023Z,35.80
2024-01-28T14:06:24.043Z,35.70
2024-01-28T14:09:32.004Z,35.70
2024-01-28T14:12:41.209Z,35.80
2024-01-28T14:15:49.403Z,35.80
2024-01-28T14:18:57.292Z,35.70
2024-01-28T14:22:05.431Z,35.70
2024-01-28T14:25:15.182Z,35.70
2024-01-28T14:28:25.612Z,35.70
2024-01-28T14:31:34.032Z,35.90
2024-01-28T14:34:42.032Z,35.90
2024-01-28T14:37:50.880Z,35.90
2024-01-28T14:40:58.739Z,35.90
2024-01-28T14:44:08.461Z,35.90
2024-01-28T14:47:16.257Z,35.90
2024-01-28T14:50:23.967Z,36.00
2024-01-28T14:53:31.990Z,36.10
2024-01-28T14:56:40.291Z,36.20
2024-01-28T14:59:50.163Z,36.30
2024-01-28T15:02:58.059Z,36.50
2024-01-28T15:06:06.528Z,36.60
2024-01-28T15:09:15.388Z,36.80
2024-01-28T15:12:25.695Z,37.30
2024-01-28T15:15:36.034Z,36.80
2024-01-28T15:18:44.500Z,36.90
2024-01-28T15:21:52.759Z,36.70
2024-01-28T15:25:02.228Z,36.70
2024-01-28T15:28:17.808Z,37.40
2024-01-28T15:31:34.122Z,36.70
2024-01-28T15:34:42.032Z,36.70
2024-01-28T15:37:49.958Z,36.70
2024-01-28T15:40:58.073Z,36.70
2024-01-28T15:44:06.437Z,36.70
2024-01-28T15:47:15.703Z,36.70
2024-01-28T15:50:23.938Z,36.60
2024-01-28T15:53:32.146Z,36.60
2024-01-28T15:56:40.484Z,36.50
2024-01-28T15:59:55.174Z,36.70
2024-01-28T16:03:14.044Z,36.70
2024-01-28T16:06:22.649Z,36.80
2024-01-28T16:09:35.690Z,36.80
2024-01-28T16:12:50.590Z,36.80
2024-01-28T16:15:58.551Z,36.80
2024-01-28T16:19:09.199Z,36.60
2024-01-28T16:22:18.971Z,36.60
2024-01-28T16:25:29.413Z,36.60
2024-01-28T16:28:37.552Z,36.60
2024-01-28T16:31:45.696Z,36.50
2024-01-28T16:34:56.199Z,36.40
2024-01-28T16:38:05.187Z,36.40
2024-01-28T16:41:13.394Z,36.30
2024-01-28T16:44:21.513Z,36.30
2024-01-28T16:47:29.693Z,36.30
2024-01-28T16:50:39.131Z,36.30
2024-01-28T16:53:46.970Z,36.30
2024-01-28T16:56:55.020Z,36.20
2024-01-28T17:00:04.453Z,36.20
2024-01-28T17:03:12.202Z,36.10
2024-01-28T17:06:21.475Z,36.20
2024-01-28T17:09:29.322Z,36.20
2024-01-28T17:12:37.570Z,36.30
2024-01-28T17:15:45.729Z,36.10
2024-01-28T17:18:53.613Z,36.00
2024-01-28T17:22:03.062Z,36.00
2024-01-28T17:25:14.656Z,35.90
2024-01-28T17:28:23.673Z,36.00
2024-01-28T17:31:35.632Z,36.00
2024-01-28T17:34:43.964Z,36.00
2024-01-28T17:37:53.651Z,36.00
2024-01-28T17:41:01.659Z,36.00
2024-01-28T17:44:09.894Z,36.00
2024-01-28T17:47:18.345Z,35.90
2024-01-28T17:50:26.529Z,35.90
2024-01-28T17:53:36.173Z,35.90
2024-01-28T17:56:44.613Z,35.90
2024-01-28T17:59:52.692Z,35.90
2024-01-28T18:03:00.938Z,35.90
2024-01-28T18:06:09.027Z,35.90
2024-01-28T18:09:18.756Z,35.90
2024-01-28T18:12:27.268Z,36.00
2024-01-28T18:15:35.311Z,36.00
2024-01-28T18:18:43.545Z,36.00
2024-01-28T18:21:52.073Z,35.90
2024-01-28T18:25:01.689Z,36.00
2024-01-28T18:28:10.808Z,35.90
2024-01-28T18:31:18.935Z,35.90
2024-01-28T18:34:27.315Z,36.00
2024-01-28T18:37:35.141Z,35.90
2024-01-28T18:40:44.707Z,35.90
2024-01-28T18:43:54.407Z,36.00
2024-01-28T18:47:02.313Z,35.90
2024-01-28T18:50:10.781Z,35.90
2024-01-28T18:53:18.644Z,35.90
2024-01-28T18:56:28.217Z,35.90
2024-01-28T18:59:36.225Z,35.90
2024-01-28T19:02:44.196Z,36.50
2024-01-28T19:05:52.281Z,36.10
2024-01-28T19:09:00.107Z,36.00
2024-01-28T19:12:10.144Z,35.90
2024-01-28T19:15:18.135Z,35.90
2024-01-28T19:18:27.233Z,35.90
2024-01-28T19:21:35.405Z,35.80
2024-01-28T19:24:43.291Z,35.80
2024-01-28T19:27:53.218Z,35.80
2024-01-28T19:31:03.007Z,35.70
2024-01-28T19:34:15.864Z,35.70
2024-01-28T19:37:25.434Z,35.70
2024-01-28T19:40:33.631Z,35.60
2024-01-28T19:43:43.446Z,35.60
2024-01-28T19:46:51.304Z,35.60
2024-01-28T19:49:59.584Z,35.60
2024-01-28T19:53:07.789Z,35.60
2024-01-28T19:56:16.000Z,35.60
2024-01-28T19:59:25.562Z,35.70
2024-01-28T20:02:33.693Z,35.60
2024-01-28T20:05:43.210Z,35.60
2024-01-28T20:08:52.211Z,35.60
2024-01-28T20:12:00.572Z,35.60
2024-01-28T20:15:11.175Z,35.70
2024-01-28T20:18:23.330Z,35.70
2024-01-28T20:21:32.201Z,35.70
2024-01-28T20:24:40.503Z,35.80
2024-01-28T20:27:48.652Z,35.80
2024-01-28T20:30:58.105Z,35.80
2024-01-28T20:34:06.131Z,35.90
2024-01-28T20:37:14.031Z,35.90
2024-01-28T20:40:23.180Z,35.90
2024-01-28T20:43:31.499Z,35.90
2024-01-28T20:46:42.837Z,35.80
2024-01-28T20:49:52.904Z,35.80
2024-01-28T20:53:01.286Z,35.80
2024-01-28T20:56:12.669Z,35.90
2024-01-28T20:59:20.945Z,35.90
2024-01-28T21:02:30.148Z,35.80
2024-01-28T21:05:38.384Z,35.70
2024-01-28T21:08:46.706Z,35.80
2024-01-28T21:11:54.892Z,35.90
2024-01-28T21:15:03.102Z,35.80
2024-01-28T21:18:12.687Z,36.00
2024-01-28T21:21:20.584Z,36.00
2024-01-28T21:24:28.791Z,36.00
2024-01-28T21:27:38.842Z,36.20
2024-01-28T21:30:47.760Z,35.90
2024-01-28T21:33:57.315Z,35.80
2024-01-28T21:37:05.560Z,35.80
2024-01-28T21:40:14.411Z,36.00
2024-01-28T21:43:23.037Z,36.00
2024-01-28T21:46:31.111Z,36.20
2024-01-28T21:49:40.859Z,36.00
2024-01-28T21:52:48.673Z,35.90
2024-01-28T21:55:56.780Z,35.80
2024-01-28T21:59:04.923Z,35.80
2024-01-28T22:02:12.719Z,35.80
2024-01-28T22:05:22.319Z,36.00
2024-01-28T22:08:30.508Z,36.10
2024-01-28T22:11:39.668Z,36.30
2024-01-28T22:14:47.720Z,36.40
2024-01-28T22:17:56.027Z,36.20
2024-01-28T22:21:06.820Z,36.20
2024-01-28T22:24:14.706Z,36.20
2024-01-28T22:27:22.505Z,36.10
2024-01-28T22:30:30.672Z,36.10
2024-01-28T22:33:38.824Z,36.10
2024-01-28T22:36:48.659Z,36.10
2024-01-28T22:39:57.047Z,36.10
2024-01-28T22:43:05.501Z,36.20
2024-01-28T22:46:13.380Z,37.00
2024-01-28T22:49:23.164Z,37.00
2024-01-28T22:52:32.671Z,37.20
2024-01-28T22:55:40.574Z,37.30
2024-01-28T22:58:50.397Z,37.50
2024-01-28T23:01:59.213Z,37.70
2024-01-28T23:05:08.845Z,37.70
2024-01-28T23:08:18.145Z,38.00
2024-01-28T23:11:26.276Z,37.90
2024-01-28T23:14:33.979Z,37.90
2024-01-28T23:17:41.626Z,38.00
2024-01-28T23:20:50.838Z,38.20
2024-01-28T23:24:00.048Z,38.20
2024-01-28T23:27:08.190Z,38.20
2024-01-28T23:30:16.574Z,38.20
2024-01-28T23:33:24.910Z,38.00
2024-01-28T23:36:33.298Z,37.80
2024-01-28T23:39:42.769Z,37.70
2024-01-28T23:42:51.025Z,37.70
2024-01-28T23:46:00.053Z,37.90
2024-01-28T23:49:10.384Z,38.10
2024-01-28T23:52:18.461Z,38.00
2024-01-28T23:55:27.808Z,38.00
2024-01-28T23:58:36.297Z,38.00
